KDTL/DTL METAR and TAF weather

Enter ICAO airport designator
Station Type Date Time Source
KDTL METAR 2019/12/10 03:15 UTC NOAA

KDTL 100315Z AUTO 00000KT 10SM CLR M23/M26 A2993 RMK AO2


Station Type Date Time Source
KDTL Decoded METAR 2019/12/10 03:15 UTC NOAA

Detroit Lakes, Detroit Lakes Airport-Wething Field, MN, United States (KDTL) 46-50N 095-53W
Dec 09, 2019 - 10:15 PM EST / 2019.12.10 0315 UTC
Wind: Calm:0
Visibility: 10 mile(s):0
Sky conditions: clear
Temperature: -9 F (-23 C)
Dew Point: -14 F (-26 C)
Relative Humidity: 76%
Pressure (altimeter): 29.93 in. Hg (1013 hPa)
ob: KDTL 100315Z AUTO 00000KT 10SM CLR M23/M26 A2993 RMK AO2
cycle: 3

Station Type Date Time Source
KDTL TAF UTC NOAA

Error!

Example: see airport list